createdAt,value
2019-05-18T00:01:37.474Z,18.17
2019-05-18T00:04:06.215Z,21.37
2019-05-18T00:06:34.945Z,16.10
2019-05-18T00:09:05.290Z,12.53
2019-05-18T00:11:34.097Z,9.73
2019-05-18T00:14:02.841Z,6.83
2019-05-18T00:16:31.604Z,17.10
2019-05-18T00:19:00.419Z,9.60
2019-05-18T00:21:29.233Z,12.87
2019-05-18T00:23:58.080Z,6.93
2019-05-18T00:26:26.897Z,12.87
2019-05-18T00:28:55.630Z,6.77
2019-05-18T00:31:24.397Z,9.87
2019-05-18T00:33:53.152Z,15.57
2019-05-18T00:36:21.904Z,17.27
2019-05-18T00:38:50.726Z,13.03
2019-05-18T00:41:19.480Z,9.40
2019-05-18T00:43:48.197Z,10.87
2019-05-18T00:46:16.972Z,7.03
2019-05-18T00:48:45.772Z,9.27
2019-05-18T00:51:14.544Z,9.13
2019-05-18T00:53:43.306Z,4.50
2019-05-18T00:56:12.109Z,6.00
2019-05-18T00:58:40.876Z,8.50
2019-05-18T01:01:09.695Z,6.77
2019-05-18T01:03:38.430Z,4.77
2019-05-18T01:06:07.262Z,9.00
2019-05-18T01:08:36.005Z,3.77
2019-05-18T01:11:04.797Z,9.73
2019-05-18T01:13:33.528Z,5.33
2019-05-18T01:16:02.275Z,11.10
2019-05-18T01:18:31.062Z,10.33
2019-05-18T01:20:59.898Z,5.83
2019-05-18T01:23:28.614Z,11.77
2019-05-18T01:25:57.402Z,6.90
2019-05-18T01:28:26.124Z,6.97
2019-05-18T01:30:54.859Z,12.43
2019-05-18T01:33:23.615Z,15.00
2019-05-18T01:35:53.707Z,6.10
2019-05-18T01:38:22.452Z,11.43
2019-05-18T01:40:51.291Z,9.80
2019-05-18T01:43:20.202Z,6.37
2019-05-18T01:45:49.140Z,18.83
2019-05-18T01:48:17.911Z,10.97
2019-05-18T01:50:46.718Z,9.57
2019-05-18T01:53:15.450Z,7.73
2019-05-18T01:55:45.389Z,7.50
2019-05-18T01:58:14.256Z,4.20
2019-05-18T02:00:43.058Z,7.97
2019-05-18T02:03:11.838Z,7.40
2019-05-18T02:05:40.688Z,5.23
2019-05-18T02:08:09.406Z,13.30
2019-05-18T02:10:38.159Z,11.77
2019-05-18T02:13:06.937Z,9.00
2019-05-18T02:15:35.738Z,8.27
2019-05-18T02:18:04.549Z,5.47
2019-05-18T02:20:33.312Z,4.57
2019-05-18T02:23:02.997Z,11.03
2019-05-18T02:25:31.779Z,12.20
2019-05-18T02:28:00.527Z,7.93
2019-05-18T02:30:29.263Z,9.50
2019-05-18T02:32:58.005Z,7.13
2019-05-18T02:35:26.832Z,7.13
2019-05-18T02:37:57.221Z,9.80
2019-05-18T02:40:25.939Z,4.83
2019-05-18T02:42:54.696Z,6.67
2019-05-18T02:45:23.505Z,10.63
2019-05-18T02:47:52.307Z,3.93
2019-05-18T02:50:21.086Z,6.93
2019-05-18T02:52:49.809Z,9.73
2019-05-18T02:55:18.548Z,9.80
2019-05-18T02:57:47.306Z,6.87
2019-05-18T03:00:16.511Z,9.60
2019-05-18T03:02:45.264Z,3.40
2019-05-18T03:05:14.107Z,6.37
2019-05-18T03:07:42.844Z,9.00
2019-05-18T03:10:11.992Z,7.83
2019-05-18T03:12:40.834Z,8.10
2019-05-18T03:15:10.074Z,11.43
2019-05-18T03:17:38.923Z,10.57
2019-05-18T03:20:08.573Z,5.90
2019-05-18T03:22:37.296Z,6.17
2019-05-18T03:25:07.247Z,6.67
2019-05-18T03:27:36.027Z,7.47
2019-05-18T03:30:06.689Z,6.37
2019-05-18T03:32:35.424Z,8.10
2019-05-18T03:35:04.976Z,7.43
2019-05-18T03:37:33.711Z,9.10
2019-05-18T03:40:03.052Z,7.97
2019-05-18T03:42:31.783Z,14.40
2019-05-18T03:45:00.616Z,8.30
2019-05-18T03:47:29.450Z,6.63
2019-05-18T03:49:58.208Z,12.00
2019-05-18T03:52:26.948Z,12.83
2019-05-18T03:54:55.754Z,8.20
2019-05-18T03:57:24.508Z,11.13
2019-05-18T03:59:54.309Z,9.47
2019-05-18T04:02:23.136Z,9.20
2019-05-18T04:04:51.968Z,6.03
2019-05-18T04:07:20.768Z,7.80
2019-05-18T04:09:49.597Z,9.43
2019-05-18T04:12:18.333Z,8.37
2019-05-18T04:14:47.096Z,10.23
2019-05-18T04:17:15.857Z,6.00
2019-05-18T04:19:46.955Z,9.93
2019-05-18T04:22:15.086Z,7.27
2019-05-18T04:24:44.925Z,11.37
2019-05-18T04:27:13.719Z,13.17
2019-05-18T04:29:42.532Z,6.80
2019-05-18T04:32:11.376Z,14.07
2019-05-18T04:34:40.104Z,8.07
2019-05-18T04:37:08.895Z,8.83
2019-05-18T04:39:39.182Z,8.43
2019-05-18T04:42:07.970Z,15.07
2019-05-18T04:44:36.711Z,8.03
2019-05-18T04:47:05.495Z,13.03
2019-05-18T04:49:34.322Z,10.77
2019-05-18T04:52:03.082Z,7.67
2019-05-18T04:54:31.870Z,11.50
2019-05-18T04:57:00.609Z,11.80
2019-05-18T04:59:29.341Z,14.80
2019-05-18T05:01:58.098Z,9.20
2019-05-18T05:04:26.842Z,9.30
2019-05-18T05:06:55.639Z,7.70
2019-05-18T05:09:24.469Z,11.27
2019-05-18T05:11:53.197Z,18.83
2019-05-18T05:14:22.043Z,12.27
2019-05-18T05:16:50.773Z,12.63
2019-05-18T05:19:20.579Z,10.20
2019-05-18T05:21:49.325Z,16.43
2019-05-18T05:24:18.061Z,8.53
2019-05-18T05:26:46.830Z,10.57
2019-05-18T05:29:15.588Z,16.57
2019-05-18T05:31:44.400Z,13.43
2019-05-18T05:34:13.181Z,11.30
2019-05-18T05:36:41.933Z,11.43
2019-05-18T05:39:10.748Z,14.43
2019-05-18T05:41:39.511Z,10.13
2019-05-18T05:44:08.273Z,11.37
2019-05-18T05:46:38.620Z,14.03
2019-05-18T05:49:07.397Z,13.40
2019-05-18T05:51:36.194Z,10.30
2019-05-18T05:54:05.009Z,11.17
2019-05-18T05:56:33.786Z,16.17
2019-05-18T05:59:02.528Z,15.90
2019-05-18T06:01:31.359Z,10.23
2019-05-18T06:04:00.138Z,12.90
2019-05-18T06:06:28.863Z,13.23
2019-05-18T06:08:57.593Z,12.17
2019-05-18T06:11:26.359Z,15.83
2019-05-18T06:13:55.208Z,16.00
2019-05-18T06:16:24.034Z,20.70
2019-05-18T06:18:52.797Z,12.73
2019-05-18T06:21:21.581Z,15.47
2019-05-18T06:23:50.316Z,20.43
2019-05-18T06:26:19.122Z,11.17
2019-05-18T06:28:47.946Z,13.17
2019-05-18T06:31:16.703Z,7.50
2019-05-18T06:33:45.494Z,12.53
2019-05-18T06:36:14.260Z,16.23
2019-05-18T06:38:43.361Z,14.63
2019-05-18T06:41:12.161Z,17.23
2019-05-18T06:43:41.018Z,16.17
2019-05-18T06:46:09.802Z,16.40
2019-05-18T06:48:38.614Z,13.37
2019-05-18T06:51:07.858Z,11.97
2019-05-18T06:53:36.767Z,16.37
2019-05-18T06:56:05.627Z,18.50
2019-05-18T06:58:35.435Z,11.90
2019-05-18T07:01:04.239Z,7.07
2019-05-18T07:03:34.369Z,13.80
2019-05-18T07:06:03.266Z,18.83
2019-05-18T07:08:32.097Z,17.73
2019-05-18T07:11:00.966Z,11.10
2019-05-18T07:13:29.913Z,18.90
2019-05-18T07:15:58.822Z,8.87
2019-05-18T07:18:27.600Z,16.73
2019-05-18T07:20:56.429Z,16.80
2019-05-18T07:23:25.235Z,15.60
2019-05-18T07:25:54.250Z,12.50
2019-05-18T07:28:23.016Z,19.03
2019-05-18T07:30:51.825Z,15.17
2019-05-18T07:33:20.676Z,22.03
2019-05-18T07:35:49.488Z,16.00
2019-05-18T07:38:18.245Z,22.73
2019-05-18T07:40:47.066Z,11.63
2019-05-18T07:43:15.807Z,18.77
2019-05-18T07:45:44.548Z,22.43
2019-05-18T07:48:13.408Z,20.27
2019-05-18T07:50:42.133Z,20.27
2019-05-18T07:53:10.858Z,12.50
2019-05-18T07:55:41.111Z,19.07
2019-05-18T07:58:09.925Z,21.27
2019-05-18T08:00:40.198Z,22.70
2019-05-18T08:03:09.099Z,19.37
2019-05-18T08:05:37.850Z,21.13
2019-05-18T08:08:07.996Z,16.70
2019-05-18T08:10:38.238Z,14.13
2019-05-18T08:13:07.967Z,11.93
2019-05-18T08:15:37.193Z,9.30
2019-05-18T08:18:06.166Z,15.90
2019-05-18T08:20:34.981Z,11.90
2019-05-18T08:23:03.791Z,12.37
2019-05-18T08:25:33.502Z,10.47
2019-05-18T08:28:02.230Z,8.87
2019-05-18T08:30:30.958Z,9.20
2019-05-18T08:32:59.810Z,18.27
2019-05-18T08:35:28.544Z,9.97
2019-05-18T08:37:57.349Z,15.83
2019-05-18T08:40:26.110Z,17.30
2019-05-18T08:42:54.907Z,14.13
2019-05-18T08:45:23.706Z,14.23
2019-05-18T08:47:52.467Z,11.60
2019-05-18T08:50:21.274Z,12.47
2019-05-18T08:52:50.081Z,6.03
2019-05-18T08:55:19.435Z,12.43
2019-05-18T08:57:48.235Z,14.03
2019-05-18T09:00:16.959Z,8.63
2019-05-18T09:02:45.709Z,12.27
2019-05-18T09:05:14.704Z,22.57
2019-05-18T09:07:43.513Z,20.13
2019-05-18T09:10:12.360Z,18.90
2019-05-18T09:12:41.164Z,23.43
2019-05-18T09:15:10.622Z,13.53
2019-05-18T09:17:39.366Z,11.40
2019-05-18T09:20:09.370Z,9.87
2019-05-18T09:22:39.603Z,15.80
2019-05-18T09:25:30.126Z,9.40
2019-05-18T09:27:58.912Z,13.77
2019-05-18T09:30:27.736Z,11.50
2019-05-18T09:33:00.688Z,14.47
2019-05-18T09:35:29.424Z,8.80
2019-05-18T09:37:58.173Z,21.80
2019-05-18T09:40:27.019Z,11.17
2019-05-18T09:42:55.855Z,10.70
2019-05-18T09:45:24.760Z,9.90
2019-05-18T09:47:53.621Z,13.60
2019-05-18T09:50:22.464Z,15.83
2019-05-18T09:52:51.199Z,16.93
2019-05-18T09:55:20.057Z,14.97
2019-05-18T09:57:49.046Z,12.07
2019-05-18T10:00:19.762Z,13.27
2019-05-18T10:02:48.721Z,16.57
2019-05-18T10:05:17.569Z,11.23
2019-05-18T10:07:46.358Z,15.43
2019-05-18T10:10:16.264Z,16.27
2019-05-18T10:12:45.035Z,12.43
2019-05-18T10:15:13.938Z,9.07
2019-05-18T10:17:42.762Z,7.57
2019-05-18T10:20:12.203Z,8.97
2019-05-18T10:22:55.539Z,9.90
2019-05-18T10:25:15.219Z,8.47
2019-05-18T10:27:44.618Z,10.83
2019-05-18T10:30:13.956Z,20.63
2019-05-18T10:32:42.726Z,14.80
2019-05-18T10:35:11.585Z,6.03
2019-05-18T10:37:40.380Z,12.90
2019-05-18T10:40:09.966Z,12.70
2019-05-18T10:42:38.723Z,8.50
2019-05-18T10:45:08.286Z,8.93
2019-05-18T10:47:37.011Z,7.40
2019-05-18T10:50:09.061Z,5.30
2019-05-18T10:52:37.863Z,5.60
2019-05-18T10:55:08.081Z,10.10
2019-05-18T10:57:36.839Z,5.23
2019-05-18T11:00:10.504Z,3.93
2019-05-18T11:02:39.206Z,7.20
2019-05-18T11:05:09.130Z,7.10
2019-05-18T11:07:37.958Z,4.80
2019-05-18T11:10:10.719Z,8.37
2019-05-18T11:12:39.572Z,3.73
2019-05-18T11:15:10.389Z,2.73
2019-05-18T11:17:39.304Z,4.27
2019-05-18T11:20:09.650Z,6.27
2019-05-18T11:22:38.637Z,3.97
2019-05-18T11:25:08.179Z,2.87
2019-05-18T11:27:37.028Z,0.73
2019-05-18T11:30:07.890Z,2.40
2019-05-18T11:32:36.949Z,7.87
2019-05-18T11:35:10.563Z,2.97
2019-05-18T11:37:39.304Z,3.10
2019-05-18T11:40:09.334Z,5.30
2019-05-18T11:42:38.096Z,2.07
2019-05-18T11:45:09.277Z,1.43
2019-05-18T11:47:37.995Z,2.10
2019-05-18T11:50:08.931Z,2.60
2019-05-18T11:52:37.664Z,2.33
2019-05-18T11:55:07.379Z,5.97
2019-05-18T11:57:36.123Z,6.20
2019-05-18T12:00:08.505Z,1.63
2019-05-18T12:02:37.350Z,3.53
2019-05-18T12:05:07.883Z,2.23
2019-05-18T12:07:36.699Z,4.83
2019-05-18T12:10:08.838Z,2.67
2019-05-18T12:12:37.587Z,4.13
2019-05-18T12:15:08.604Z,2.97
2019-05-18T12:17:37.394Z,6.17
2019-05-18T12:20:07.494Z,2.90
2019-05-18T12:22:36.312Z,0.90
2019-05-18T12:25:07.995Z,3.03
2019-05-18T12:27:36.851Z,1.60
2019-05-18T12:30:07.935Z,4.10
2019-05-18T12:32:36.672Z,2.73
2019-05-18T12:35:08.194Z,2.40
2019-05-18T12:37:37.018Z,1.80
2019-05-18T12:40:09.962Z,1.83
2019-05-18T12:42:38.698Z,1.63
2019-05-18T12:45:09.665Z,0.40
2019-05-18T12:47:38.371Z,1.70
2019-05-18T12:50:09.199Z,1.50
2019-05-18T12:52:39.211Z,3.87
2019-05-18T12:55:08.540Z,2.83
2019-05-18T12:57:37.677Z,2.93
2019-05-18T13:00:09.887Z,5.27
2019-05-18T13:02:38.680Z,1.93
2019-05-18T13:05:08.142Z,3.87
2019-05-18T13:07:36.868Z,1.27
2019-05-18T13:10:09.929Z,1.60
2019-05-18T13:12:38.971Z,3.83
2019-05-18T13:15:12.415Z,3.97
2019-05-18T13:17:41.150Z,4.23
2019-05-18T13:20:11.595Z,4.77
2019-05-18T13:22:41.263Z,1.63
2019-05-18T13:25:12.092Z,3.93
2019-05-18T13:27:40.832Z,24.60
2019-05-18T13:30:11.569Z,10.70
2019-05-18T13:32:40.541Z,9.47
2019-05-18T13:35:09.789Z,6.67
2019-05-18T13:37:38.527Z,3.87
2019-05-18T13:40:07.887Z,7.00
2019-05-18T13:42:36.626Z,5.90
2019-05-18T13:45:08.221Z,8.23
2019-05-18T13:47:37.056Z,13.67
2019-05-18T13:50:06.961Z,11.57
2019-05-18T13:52:37.132Z,12.90
2019-05-18T13:55:06.334Z,12.63
2019-05-18T13:57:35.507Z,5.90
2019-05-18T14:00:09.798Z,5.30
2019-05-18T14:02:38.529Z,10.97
2019-05-18T14:05:07.607Z,24.40
2019-05-18T14:07:36.402Z,26.03
2019-05-18T14:10:07.329Z,15.90
2019-05-18T14:12:36.499Z,17.40
2019-05-18T14:15:07.404Z,38.10
2019-05-18T14:17:36.179Z,7.17
2019-05-18T14:20:06.142Z,6.37
2019-05-18T14:22:34.932Z,12.43
2019-05-18T14:25:18.774Z,21.80
2019-05-18T14:27:37.718Z,31.00
2019-05-18T14:30:07.981Z,12.07
2019-05-18T14:32:36.722Z,7.50
2019-05-18T14:35:09.389Z,16.60
2019-05-18T14:37:38.212Z,18.43
2019-05-18T14:40:07.771Z,14.20
2019-05-18T14:42:36.503Z,20.03
2019-05-18T14:45:08.483Z,26.50
2019-05-18T14:47:37.233Z,15.73
2019-05-18T14:50:07.479Z,11.57
2019-05-18T14:52:36.423Z,19.73
2019-05-18T14:55:06.674Z,25.47
2019-05-18T14:57:35.427Z,19.37
2019-05-18T15:00:06.340Z,19.83
2019-05-18T15:02:35.195Z,21.30
2019-05-18T15:05:05.628Z,16.63
2019-05-18T15:07:34.373Z,20.83
2019-05-18T15:10:03.418Z,31.00
2019-05-18T15:12:33.202Z,29.93
2019-05-18T15:15:02.032Z,14.83
2019-05-18T15:17:30.861Z,35.13
2019-05-18T15:19:59.757Z,29.57
2019-05-18T15:22:28.510Z,26.80
2019-05-18T15:24:57.252Z,14.87
2019-05-18T15:27:25.990Z,22.83
2019-05-18T15:29:54.738Z,30.27
2019-05-18T15:32:23.628Z,23.90
2019-05-18T15:34:52.439Z,13.03
2019-05-18T15:37:21.267Z,14.93
2019-05-18T15:39:50.041Z,13.03
2019-05-18T15:42:18.792Z,11.97
2019-05-18T15:44:47.642Z,8.07
2019-05-18T15:47:16.428Z,13.70
2019-05-18T15:49:45.163Z,9.83
2019-05-18T15:52:13.894Z,12.73
2019-05-18T15:54:42.723Z,12.40
2019-05-18T15:57:11.634Z,7.37
2019-05-18T15:59:40.454Z,15.17
2019-05-18T16:02:09.278Z,20.00
2019-05-18T16:04:38.078Z,14.63
2019-05-18T16:07:06.909Z,16.97
2019-05-18T16:09:35.679Z,10.37
2019-05-18T16:12:04.481Z,12.17
2019-05-18T16:14:33.304Z,9.00
2019-05-18T16:17:03.123Z,8.07
2019-05-18T16:19:31.934Z,14.93
2019-05-18T16:22:00.681Z,11.93
2019-05-18T16:24:29.445Z,13.93
2019-05-18T16:26:58.202Z,12.40
2019-05-18T16:29:27.010Z,21.87
2019-05-18T16:31:55.782Z,9.90
2019-05-18T16:34:24.528Z,11.10
2019-05-18T16:36:53.355Z,16.63
2019-05-18T16:39:22.218Z,9.53
2019-05-18T16:41:51.023Z,9.03
2019-05-18T16:44:19.813Z,8.93
2019-05-18T16:46:48.635Z,9.93
2019-05-18T16:49:17.369Z,7.23
2019-05-18T16:51:46.165Z,10.70
2019-05-18T16:54:14.942Z,12.80
2019-05-18T16:56:43.683Z,11.97
2019-05-18T16:59:12.398Z,9.30
2019-05-18T17:01:41.245Z,12.17
2019-05-18T17:04:09.990Z,6.37
2019-05-18T17:06:38.725Z,7.20
2019-05-18T17:09:07.590Z,8.53
2019-05-18T17:11:36.320Z,7.10
2019-05-18T17:14:05.060Z,9.80
2019-05-18T17:16:33.821Z,8.63
2019-05-18T17:19:02.592Z,11.80
2019-05-18T17:21:31.330Z,6.60
2019-05-18T17:24:00.255Z,9.33
2019-05-18T17:26:29.129Z,9.83
2019-05-18T17:28:57.873Z,8.97
2019-05-18T17:31:26.667Z,10.00
2019-05-18T17:33:55.418Z,15.23
2019-05-18T17:36:24.214Z,19.30
2019-05-18T17:38:52.986Z,10.23
2019-05-18T17:41:21.792Z,7.43
2019-05-18T17:43:50.596Z,11.00
2019-05-18T17:46:19.477Z,7.07
2019-05-18T17:48:48.231Z,8.47
2019-05-18T17:51:17.130Z,6.53
2019-05-18T17:53:46.120Z,6.37
2019-05-18T17:56:14.905Z,9.30
2019-05-18T17:58:43.840Z,13.03
2019-05-18T18:01:12.685Z,11.87
2019-05-18T18:03:43.536Z,10.63
2019-05-18T18:06:12.243Z,11.97
2019-05-18T18:08:42.149Z,14.83
2019-05-18T18:11:11.928Z,23.60
2019-05-18T18:13:40.855Z,12.13
2019-05-18T18:16:09.802Z,18.97
2019-05-18T18:18:38.619Z,16.07
2019-05-18T18:21:07.416Z,16.03
2019-05-18T18:23:36.191Z,12.50
2019-05-18T18:26:05.011Z,13.77
2019-05-18T18:28:34.795Z,11.83
2019-05-18T18:31:03.643Z,13.00
2019-05-18T18:33:32.519Z,11.70
2019-05-18T18:36:01.264Z,12.73
2019-05-18T18:38:30.035Z,12.50
2019-05-18T18:40:58.794Z,15.33
2019-05-18T18:43:27.608Z,13.83
2019-05-18T18:45:56.370Z,18.87
2019-05-18T18:48:26.495Z,17.30
2019-05-18T18:50:55.569Z,17.47
2019-05-18T18:53:24.374Z,15.40
2019-05-18T18:55:53.473Z,9.93
2019-05-18T18:58:22.243Z,10.23
2019-05-18T19:00:50.986Z,18.97
2019-05-18T19:03:19.734Z,12.97
2019-05-18T19:05:48.548Z,21.13
2019-05-18T19:08:17.313Z,10.93
2019-05-18T19:10:46.138Z,14.60
2019-05-18T19:13:14.878Z,13.83
2019-05-18T19:15:43.717Z,13.37
2019-05-18T19:18:12.458Z,11.17
2019-05-18T19:20:41.209Z,9.97
2019-05-18T19:23:10.353Z,10.50
2019-05-18T19:25:39.170Z,12.53
2019-05-18T19:28:07.894Z,9.67
2019-05-18T19:30:36.681Z,13.63
2019-05-18T19:33:05.489Z,8.63
2019-05-18T19:35:34.218Z,10.50
2019-05-18T19:38:02.982Z,6.17
2019-05-18T19:40:31.731Z,11.10
2019-05-18T19:43:00.527Z,7.87
2019-05-18T19:45:29.347Z,11.20
2019-05-18T19:47:58.163Z,7.53
2019-05-18T19:50:26.969Z,7.80
2019-05-18T19:52:55.832Z,7.73
2019-05-18T19:55:24.642Z,7.57
2019-05-18T19:57:53.491Z,10.03
2019-05-18T20:00:22.945Z,10.77
2019-05-18T20:02:51.681Z,10.10
2019-05-18T20:05:20.405Z,9.73
2019-05-18T20:07:51.100Z,9.60
2019-05-18T20:10:19.665Z,12.47
2019-05-18T20:12:48.417Z,11.93
2019-05-18T20:15:17.380Z,11.23
2019-05-18T20:17:46.482Z,9.57
2019-05-18T20:20:15.526Z,7.70
2019-05-18T20:22:45.624Z,10.50
2019-05-18T20:25:14.564Z,8.03
2019-05-18T20:27:43.359Z,7.27
2019-05-18T20:30:12.526Z,11.63
2019-05-18T20:32:41.412Z,15.73
2019-05-18T20:35:10.451Z,13.37
2019-05-18T20:37:39.220Z,12.90
2019-05-18T20:40:09.010Z,18.53
2019-05-18T20:42:38.013Z,13.03
2019-05-18T20:45:07.174Z,20.20
2019-05-18T20:47:35.948Z,15.83
2019-05-18T20:50:05.632Z,13.63
2019-05-18T20:52:34.469Z,16.23
2019-05-18T20:55:03.364Z,17.00
2019-05-18T20:57:32.104Z,18.97
2019-05-18T21:00:00.942Z,21.03
2019-05-18T21:02:29.691Z,32.30
2019-05-18T21:04:59.423Z,20.10
2019-05-18T21:07:28.285Z,15.43
2019-05-18T21:09:57.075Z,19.73
2019-05-18T21:12:25.828Z,23.37
2019-05-18T21:14:54.591Z,27.70
2019-05-18T21:17:23.362Z,26.77
2019-05-18T21:19:52.105Z,24.37
2019-05-18T21:22:20.892Z,37.77
2019-05-18T21:24:49.899Z,29.03
2019-05-18T21:27:18.702Z,28.67
2019-05-18T21:29:47.475Z,25.63
2019-05-18T21:32:16.309Z,26.13
2019-05-18T21:34:45.172Z,31.33
2019-05-18T21:37:13.962Z,34.47
2019-05-18T21:39:42.669Z,39.93
2019-05-18T21:42:11.544Z,51.10
2019-05-18T21:44:40.439Z,56.53
2019-05-18T21:47:09.180Z,41.93
2019-05-18T21:49:37.998Z,61.00
2019-05-18T21:52:06.818Z,67.40
2019-05-18T21:54:35.577Z,70.93
2019-05-18T21:57:04.392Z,60.73
2019-05-18T21:59:33.145Z,94.97
2019-05-18T22:02:01.946Z,116.90
2019-05-18T22:04:30.671Z,44.33
2019-05-18T22:06:59.524Z,96.07
2019-05-18T22:09:28.318Z,57.50
2019-05-18T22:11:57.129Z,56.43
2019-05-18T22:14:25.902Z,105.60
2019-05-18T22:16:54.651Z,96.10
2019-05-18T22:19:23.379Z,88.10
2019-05-18T22:21:52.247Z,76.43
2019-05-18T22:24:21.095Z,35.10
2019-05-18T22:26:49.891Z,48.37
2019-05-18T22:29:18.706Z,69.43
2019-05-18T22:31:47.547Z,46.10
2019-05-18T22:34:16.458Z,48.70
2019-05-18T22:36:45.301Z,32.87
2019-05-18T22:39:14.131Z,50.93
2019-05-18T22:41:42.991Z,44.73
2019-05-18T22:44:11.917Z,27.97
2019-05-18T22:46:40.697Z,43.23
2019-05-18T22:49:09.511Z,90.27
2019-05-18T22:51:38.253Z,34.70
2019-05-18T22:54:07.098Z,30.93
2019-05-18T22:56:35.830Z,21.53
2019-05-18T22:59:04.651Z,40.87
2019-05-18T23:01:33.484Z,39.80
2019-05-18T23:04:02.434Z,27.30
2019-05-18T23:06:31.318Z,31.60
2019-05-18T23:09:00.124Z,31.63
2019-05-18T23:11:28.938Z,21.07
2019-05-18T23:13:59.476Z,23.87
2019-05-18T23:16:28.334Z,21.00
2019-05-18T23:18:57.480Z,25.33
2019-05-18T23:21:26.403Z,30.00
2019-05-18T23:23:55.275Z,22.37
2019-05-18T23:26:24.110Z,22.60
2019-05-18T23:28:54.873Z,35.57
2019-05-18T23:31:23.347Z,21.00
2019-05-18T23:33:52.174Z,28.80
2019-05-18T23:36:21.066Z,36.53
2019-05-18T23:38:49.801Z,40.00
2019-05-18T23:41:18.698Z,28.73
2019-05-18T23:43:47.402Z,19.07
2019-05-18T23:46:16.233Z,21.20
2019-05-18T23:48:45.064Z,17.17
2019-05-18T23:51:13.900Z,36.83
2019-05-18T23:53:42.663Z,29.53
2019-05-18T23:56:11.564Z,28.77
2019-05-18T23:58:40.392Z,29.77
